This site, now in its 15th season, is a labour of love and fun from one of Ottawa's most avid time trialists and number crunchers. It adheres to and is permitted by the laws of Canada, promotes the objectives of every bicycle club whose results are shown, and is donated free of charge by myself for your enjoyment and usage. If you would like results from series you ride in to be shown here, give me (celia@drmath.ca) a shout!


Index Page
ATT OTT WTT AATT CFCTT VVVTT
Help resultformat:
Case-sensitive

OBC Open TT Series - 2009-Apr-10 (Good Friday) - 15km (Rockliffe Pkwy) (EvtFactor = 0.7189)

Weather (11:00): Mostly Cloudy. Temp.: 2.3C, Humidity: 54%, DewPoint: -6.0C, Wind: NW 15km/h, Pressure: 100.56kPa, Visibility: 24.1km.
Weather (12:00): Mostly Cloudy. Temp.: 2.2C, Humidity: 53%, DewPoint: -6.3C, Wind: W 11km/h, Pressure: 100.58kPa, Visibility: 24.1km.
Weather (13:00): Mainly Clear. Temp.: 4.6C, Humidity: 49%, DewPoint: -5.1C, Wind: W 19km/h, Pressure: 100.55kPa, Visibility: 24.1km.

Send photos with description (when/where/what) of yourself on or off of bike to celia@drmath.ca

These results were first posted (with ongoing changes) on the OBC site circa 21:30 on 2009-Apr-13 and are available here for your added pleasure and analysis.

Considerably better conditions than last year's cold and windy Good Friday drew out a good crowd of 100 or so today and there were some excellent performances. The fastest two men surpassed the previous best OBC Good Friday times, and in fact Warren MacDonald broke the 45km/h mark by a long shot. If he improves this year as much as he did last year, we may see Warren break the 50km/h barrier. The women also rode well, with Dianne Marleau currently ranking 4th in the Good Friday women's results. Dianne was just 1 minute and nine seconds slower than her best from last year, and if she posts the kind of improvements that most people tend to do from an April Good Friday to their season best (see this graph, for example), she may find herself in the 22's this year. You may click here to see how people did today relative to their best last year. It was nice to see a full range of ages out as well - from Peewee Hugh Xie to Geofrey Wright, out on his 81st birthday. Happy Birthday Geoffrey!

 
 

BESTS?
 
1 MacDonald, Warren  OBC/EMD 19:25 46.352 1/100 VAM 1/22  
2 Fillion, Aaron  OBC 20:15 44.444 2/100 VAM 2/22  
3 Olson, Chris EMD 20:44 43.408 3/100 VBM 1/19  
4 van den Ham, Douglas  OBC/EMD 21:43 41.443 4/100 VAM 3/22  
5 Hamilton, Peter OBC 21:45 41.379 5/100 VBM 2/19  
6 Atkins, Ryan EMD 22:03 40.816 6/100 SEM 1/10  
7 Plaunt, Grahame OBC 22:18 40.359 7/100 VAM 4/22  
8 Cataford, Alex OBC 22:30 40.000 8/100 CAM 1/2  
9 Budgell, Glen  OBC 23:00 39.130 9/100 VCM 1/16  
10 Farish, Neil  OBC 23:03 39.046 10/100 VCM 2/16  
11 Gerrard, David  OBC 23:07 38.933 11/100 VBM 3/19  
12 Kruger, Andrew  ULT 23:09 38.877 12/100 VAM 5/22  
13 D'Urbano, Dante MV 23:11 38.821 13/100 SEM 2/10  
14 Chedore, Paul ULT 23:15 38.710 14/100 VAM 6/22  
15 Konov, Sergei OBC 23:22 38.516 15/100 VAM 7/22  
16 Zuliani, Greg EMD 23:24 38.462 16/100 SEM 3/10  
17 Campbell, Colin  FC 23:30 38.298 17/100 VBM 4/19  
Roundell, Mark  OBC 23:30 38.298 17/100 VCM 3/16  
19 Morewood, Colin OBC 23:40 38.028 19/100 JUM 1/3  
Sugden, David RDO 23:40 38.028 19/100 VBM 5/19  
21 Hess, Detlef OBC 23:45 37.895 21/100 VCM 4/16  
22 Charron, Martin RWR 23:51 37.736 22/100 VAM 8/22  
23 Burdett, Avery  OBC 24:00 37.500 23/100 VEM 1/2  
24 Knight, Matthew CS 24:07 37.319 24/100 VAM 9/22  
25 Muller-Cheng, Evan OBC 24:10 37.241 25/100 SEM 4/10  
26 Michel, Alexandre  WQW 24:15 37.113 26/100 VAM 10/22  
27 Diotte, Daniel FC 24:21 36.961 27/100 VBM 6/19  
28 Forcese, Craig OBC 24:30 36.735 28/100 VBM 7/19  
Kerckhoff, Hermann  RWR 24:30 36.735 28/100 VEM 2/2  
30 Reissner, Leslie OBC 24:35 36.610 30/100 VCM 5/16  
31 Sargent, Larry OBC 24:38 36.536 31/100 VCM 6/16  
Zollinger, Martin OBC 24:38 36.536 31/100 VAM 11/22  
33 Lavoie, Marcel  OBC 24:46 36.339 33/100 VBM 8/19  
34 Marleau, Dianne  OBC 24:49 36.266 34/100 VBF 1/3  
35 Armstrong, Brian OBC 24:54 36.145 35/100 VBM 9/19  
36 Page, Graham OBC 25:06 35.857 36/100 SEM 5/10  
37 Morris, Steve OBC 25:10 35.762 37/100 VBM 10/19  
Somogyi, Michel OBC 25:10 35.762 37/100 VAM 12/22  
39 Langevin, Roger  OBC 25:11 35.738 39/100 VAM 13/22  
40 Deavy, Carol  OBC 25:30 35.294 40/100 VBF 2/3  
41 Lankenau, David OBC 25:39 35.088 41/100 VBM 11/19  
42 Moerman, Bram  OBC 25:43 34.997 42/100 VDM 1/6  
43 Phillips, Ron OBC 25:45 34.951 43/100 VDM 2/6  
44 Abbott, Jason OBC 25:58 34.660 44/100 SEM 6/10  
45 Seniuk, Thomas OBC 26:08 34.439 45/100 VBM 12/19  
46 McHugh, Craig OBC 26:13 34.329 46/100 VBM 13/19  
47 Blais, Sylvain OBC 26:30 33.962 47/100 VBM 14/19  
Guenette, Jean-Yves OBC 26:30 33.962 47/100 VCM 7/16  
49 Janusauskas, Vytas  OBC 26:35 33.856 49/100 VCM 8/16  
50 O'Brien, Conor EMD 26:40 33.750 50/100 JUM 2/3  
51 Labelle, Marc-Antoine OBC 26:52 33.499 51/100 CAM 2/2  
52 Henry, Mike --- 27:00 33.333 52/100 VAM 14/22  
53 Kirton, Ian OBC 27:01 33.313 53/100 VAM 15/22  
54 Verheyden, Peter  OBC 27:05 33.231 54/100 VCM 9/16  
55 Gagnon, Alexandre  OBC 27:16 33.007 55/100 SEM 7/10  
56 Martin, David OBC 27:22 32.887 56/100 VBM 15/19  
57 Samborski, Mike OBC 27:27 32.787 57/100 VAM 16/22  
58 McInnis, Celia  OBC/ABC 27:39 32.550 58/100 VCF 1/4  
59 Davy, Andrew OBC 27:42 32.491 59/100 SEM 8/10  
Trafford, Brian OBC 27:42 32.491 59/100 JUM 3/3  
61 Wolfe, Philip OBC 27:45 32.432 61/100 VBM 16/19  
62 Lewis, Alex  OBC 27:48 32.374 62/100 VCM 10/16  
63 Olson, Jay OBC 27:51 32.316 63/100 VCM 11/16  
64 Hanham, Tanya OBC 27:55 32.239 64/100 VAF 1/4  
65 Manning, Nancy  OBC 28:00 32.143 65/100 VCF 2/4  
66 Burge, Larry  OBC 28:02 32.105 66/100 VBM 17/19  
67 Schattmann, Peter OBC 28:05 32.047 67/100 VBM 18/19  
68 Rees, Stephanie  OBC 28:30 31.579 68/100 VAF 2/4  
69 Follon, Derek OBC 29:00 31.034 69/100 VDM 3/6  
70 Gagnon, Jules OBC 29:02 30.999 70/100 VCM 12/16  
71 Couturier-Lamy, Felix OBC 29:05 30.946 71/100 MIM 1/1  
72 Gray, Leona  OBC 29:09 30.875 72/100 VDF 1/3  
Washer, Simon OBC 29:09 30.875 72/100 VAM 17/22  
74 Ray, Brian OBC 29:15 30.769 74/100 VDM 4/6  
75 Washer, Michael OBC 29:36 30.405 75/100 VCM 13/16  
76 Gildner, Emily OBC 29:43 30.286 76/100 VDF 2/3  
77 Ricard, Marie-Pier OBC 29:58 30.033 77/100 SEF 1/2  
78 Tran, Anthony OBC 30:05 29.917 78/100 SEM 9/10  
79 Bernier, Michel  OBC 30:18 29.703 79/100 VCM 14/16  
80 Los, Lindsay  OBC 30:19 29.687 80/100 SEF 2/2  
Morewood, Arthur OBC 30:19 29.687 80/100 VDM 5/6  
82 Jardine, Karen  OBC 30:25 29.589 82/100 VCF 3/4  
83 Reilly, John OBC 30:32 29.476 83/100 VCM 15/16  
84 Dumouchel, Jon OBC 30:35 29.428 84/100 SEM 10/10  
85 McLaren, Louise  OBC 30:46 29.252 85/100 VBF 3/3  
86 Hammingh, Jane  OBC 31:00 29.032 86/100 VCF 4/4  
Stoneham, Ron OBC 31:00 29.032 86/100 VDM 6/6  
88 Ramcharan, John OBC 32:12 27.950 88/100 VCM 16/16  
89 Fatma Demet, Ulker OBC 32:23 27.792 89/100 VAF 3/4  
Wright, Geoffrey  OBC 32:23 27.792 89/100 VFM 1/1  
91 Wilson, Barbara  OBC 32:27 27.735 91/100 VDF 3/3  
92 Xie, Bailin  OBC 32:28 27.721 92/100 MIF 1/1  
93 Byskov, Karen  OBC 34:05 26.406 93/100 VAF 4/4  
94 Xie, Hugh  OBC 35:31 25.340 94/100 PWM 1/1  
95 Parkinson, Scott OBC 36:28 24.680 95/100 VAM 18/22  
96 LeBrun, Robert OBC 43:06 20.882 96/100 VAM 19/22  
97 Twemlow, John OBC 47:55 18.783 97/100 VBM 19/19  
98 Braekevelt, Eric OBC DNF   98/100 VAM 20/22  
Buzzell, Andrew OBC DNF   98/100 VAM 20/22  
Tregunno, Peter  OBC DNS   100/100 VAM 22/22  
 
Average Speed of all of the above 97 finishes (1455km in 43:49:27):33.201
>>>Average of the Average Speeds for these 97 finishes33.921<<<
 

The number of data records shown above is 100
The server processing of your query took: 1 wallclock secs ( 0.09 usr + 0.00 sys = 0.09 CPU)

Thanks to our Helpers: Rosmarie Gerber, Stephanie Rees, Tom Stratton, Peter Tregunno.

     


  Apr 10 (Good Friday)  
May 5 (10km) May 7 May 12 (10km) May 14 May 19 May 19 (10km) May 21 May 26 May 26 (10km) May 28 May 31 (40km)
Jun 2 Jun 2 Jun 4 Jun 9 Jun 9 Jun 11 Jun 16 Jun 16 Jun 18 Jun 23 Jun 23 Jun 25 Jun 30 Jun 30
Jul 2 Jul 5 (40km) Jul 7 Jul 7 (10km) Jul 9 (10km) Jul 12 (40km) Jul 14 Jul 14 (10km) Jul 16 (10km) Jul 21 Jul 21 (10km) Jul 23 Jul 23 (10km) Jul 28 Jul 28 (10km) Jul 30 (10km)
Aug 4 (cancelled - thunder storm) Aug 4 (10km) (cancelled - thunder storm) Aug 6 (10km) Aug 9 (40km) Aug 11 Aug 11 (10km) Aug 13 (10km) Aug 18 Aug 18 (10km) Aug 20 (10km) (cancelled - construction) Aug 25 Aug 25 (Invitational) Aug 27
Sep 1 Sep 3 Sep 8 Sep 10 Sep 13 (40km) Sep 15 Sep 22 Sep 29

OTT Rankings
Best       Best by category
WTT Rankings for OBC Members
4 Best Speeds     4 Best Speeds by category
OBC Member Best Three 15km Rankings
Overall     by category     age-Hcap Female   age-Hcap Male
OBC BAR Ranking
Overall     by category     Rider "Consistency-Graph"
ABC BAR Ranking
Overall     by category     Rider "Consistency-Graph"
Other years
TT Calculator All TT People All TT events
ABC Home VVV Home
CKAP GOLD MEDAL
Other Links

Note: OTT data from 2003 through 2006-Apr-14 and 2007-Apr-06-? and WTT from 2008-? is taken from the official OBC site.

Please send your comments and suggestions to: Celia McInnis
Copyright © 1998-2011 Celia McInnis. All rights reserved. Links are welcomed.